Impacts METAR Board
IDs:

KMIA - Miami Intl, FL, US

Updated at: 1100 UTC 30 Oct 2020
Potential Impact None Slight Moderate High
Time 29/23Z 30/00Z 30/01Z 30/02Z 30/03Z 30/04Z 30/05Z 30/06Z 30/07Z 30/08Z 30/09Z 30/10Z 30/11Z
Temp83 82 82 81 81 80 80 80 80 79 79 78 79
Dewpt76 76 76 76 77 77 77 77 77 76 76 76 77
Altim29.90 29.92 29.94 29.95 29.95 29.96 29.95 29.94 29.93 29.92 29.92 29.92 29.93
VIS10 10 10 10 10 10 10 10 10 10 10 10 10
CIG-- -- -- -- 300 -- -- 25 -- -- -- -- --
CoverFEWSCTFEWSCTBKNSCTSCTBKNSCTFEWFEWFEWSCT
FltCatVFRVFRVFRVFRVFRVFRVFRMVFRVFRVFRVFRVFRVFR
WX--------------------------
WDir15018017000150150210001700210
WSpd7 6 5 0 0 3 4 3 0 0 3 0 3
WGst-- -- -- -- -- -- -- -- -- -- -- -- --
Raw hourly METARs
KMIA 292253Z 15007KT 10SM FEW023 FEW070 28/24 A2990 RMK AO2 SLP126 T02830244 $
KMIA 292353Z 18006KT 10SM FEW025 FEW130 SCT250 28/24 A2992 RMK AO2 SLP131 CB DSNT NW T02780244 10311 20278 53010 $
KMIA 300053Z 17005KT 10SM FEW025 FEW130 28/24 A2994 RMK AO2 SLP138 T02780244 $
KMIA 300153Z 00000KT 10SM FEW025 FEW130 SCT250 27/24 A2995 RMK AO2 SLP141 T02720244 $
KMIA 300253Z 00000KT 10SM FEW025 FEW120 BKN300 27/25 A2995 RMK AO2 SLP143 T02720250 51012 $
KMIA 300353Z 15003KT 10SM FEW025 FEW120 SCT300 27/25 A2996 RMK AO2 SLP144 T02670250 $
KMIA 300453Z 15004KT 10SM SCT015 SCT023 27/25 A2995 RMK AO2 SLP143 T02670250 403110267 $
KMIA 300553Z 21003KT 10SM SCT015 BKN025 27/25 A2994 RMK AO2 SLP139 T02670250 10278 20267 58004 $
KMIA 300653Z 00000KT 10SM SCT015 SCT023 27/25 A2993 RMK AO2 SLP135 T02670250 $
KMIA 300753Z 00000KT 10SM FEW015 26/24 A2992 RMK AO2 SLP132 T02610244 $
KMIA 300853Z 17003KT 10SM FEW015TCU 26/24 A2992 RMK AO2 SLP130 TCU SE T02610244 56009 $
KMIA 300953Z 00000KT 10SM FEW015 26/24 A2992 RMK AO2 SLP131 T02560244 $
KMIA 301053Z 21003KT 10SM FEW012 SCT250 26/25 A2993 RMK AO2 SLP135 T02610250 $



Page loaded:  11:27 UTC  |   04:27 AM Pacific  |   05:27 AM Mountain  |   06:27 AM Central  |   07:27 AM Eastern

 

ADVISORIES

FORECASTS

FORECASTS

OBSERVATIONS

USER TOOLS

ABOUT US